sensor_id;sensor_type;location;lat;lon;timestamp;pressure;altitude;pressure_sealevel;temperature
74449;BMP280;62878;51.026;4.472;2022-11-20T00:00:23;-5936.09;;;14.14
74449;BMP280;62878;51.026;4.472;2022-11-20T00:02:48;-5930.81;;;13.82
74449;BMP280;62878;51.026;4.472;2022-11-20T00:05:14;-5935.44;;;14.10
74449;BMP280;62878;51.026;4.472;2022-11-20T00:07:39;-5935.69;;;14.12
74449;BMP280;62878;51.026;4.472;2022-11-20T00:10:05;-5935.94;;;14.13
74449;BMP280;62878;51.026;4.472;2022-11-20T00:12:31;-5936.03;;;14.14
74449;BMP280;62878;51.026;4.472;2022-11-20T00:14:56;-5935.09;;;14.08
74449;BMP280;62878;51.026;4.472;2022-11-20T00:17:21;-5935.94;;;14.13
74449;BMP280;62878;51.026;4.472;2022-11-20T00:19:47;-5936.09;;;14.14
74449;BMP280;62878;51.026;4.472;2022-11-20T00:22:12;-5934.69;;;14.06
74449;BMP280;62878;51.026;4.472;2022-11-20T00:24:38;-5934.09;;;14.02
74449;BMP280;62878;51.026;4.472;2022-11-20T00:27:03;-5935.00;;;14.08
74449;BMP280;62878;51.026;4.472;2022-11-20T00:29:28;-5933.41;;;13.98
74449;BMP280;62878;51.026;4.472;2022-11-20T00:31:54;-5935.25;;;14.09
74449;BMP280;62878;51.026;4.472;2022-11-20T00:34:19;-5934.09;;;14.02
74449;BMP280;62878;51.026;4.472;2022-11-20T00:36:44;-5932.31;;;13.92
74449;BMP280;62878;51.026;4.472;2022-11-20T00:39:10;-5933.41;;;13.98
74449;BMP280;62878;51.026;4.472;2022-11-20T00:41:35;-5935.09;;;14.08
74449;BMP280;62878;51.026;4.472;2022-11-20T00:44:00;-5933.59;;;13.99
74449;BMP280;62878;51.026;4.472;2022-11-20T00:46:27;-5933.25;;;13.97
74449;BMP280;62878;51.026;4.472;2022-11-20T00:48:53;-5934.84;;;14.07
74449;BMP280;62878;51.026;4.472;2022-11-20T00:51:20;-5934.84;;;14.07
74449;BMP280;62878;51.026;4.472;2022-11-20T00:53:46;-5934.59;;;14.05
74449;BMP280;62878;51.026;4.472;2022-11-20T00:56:16;-5932.75;;;13.94
74449;BMP280;62878;51.026;4.472;2022-11-20T00:58:45;-5935.25;;;14.09
74449;BMP280;62878;51.026;4.472;2022-11-20T01:01:14;-5935.44;;;14.10
74449;BMP280;62878;51.026;4.472;2022-11-20T01:03:45;-5934.94;;;14.07
74449;BMP280;62878;51.026;4.472;2022-11-20T01:06:23;-5934.59;;;14.05
74449;BMP280;62878;51.026;4.472;2022-11-20T01:08:50;-5934.75;;;14.06
74449;BMP280;62878;51.026;4.472;2022-11-20T01:11:20;-5934.44;;;14.04
74449;BMP280;62878;51.026;4.472;2022-11-20T01:13:47;-5933.25;;;13.97
74449;BMP280;62878;51.026;4.472;2022-11-20T01:16:24;-5934.50;;;14.05
74449;BMP280;62878;51.026;4.472;2022-11-20T01:18:51;-5934.44;;;14.04
74449;BMP280;62878;51.026;4.472;2022-11-20T01:21:19;-5931.22;;;13.85
74449;BMP280;62878;51.026;4.472;2022-11-20T01:23:46;-5934.09;;;14.02
74449;BMP280;62878;51.026;4.472;2022-11-20T01:26:24;-5934.34;;;14.04
74449;BMP280;62878;51.026;4.472;2022-11-20T01:28:50;-5934.09;;;14.02
74449;BMP280;62878;51.026;4.472;2022-11-20T01:31:18;-5934.09;;;14.02
74449;BMP280;62878;51.026;4.472;2022-11-20T01:33:45;-5932.06;;;13.90
74449;BMP280;62878;51.026;4.472;2022-11-20T01:36:11;-5931.72;;;13.88
74449;BMP280;62878;51.026;4.472;2022-11-20T01:38:37;-5933.75;;;14.00
74449;BMP280;62878;51.026;4.472;2022-11-20T01:41:03;-5933.25;;;13.97
74449;BMP280;62878;51.026;4.472;2022-11-20T01:43:29;-5930.88;;;13.83
74449;BMP280;62878;51.026;4.472;2022-11-20T01:48:54;-5934.00;;;14.02
74449;BMP280;62878;51.026;4.472;2022-11-20T01:54:15;-5933.25;;;13.97
74449;BMP280;62878;51.026;4.472;2022-11-20T01:56:44;-5932.75;;;13.94
74449;BMP280;62878;51.026;4.472;2022-11-20T01:59:13;-5933.25;;;13.97
74449;BMP280;62878;51.026;4.472;2022-11-20T02:01:40;-5932.31;;;13.92
74449;BMP280;62878;51.026;4.472;2022-11-20T02:04:07;-5932.06;;;13.90
74449;BMP280;62878;51.026;4.472;2022-11-20T02:06:36;-5927.50;;;13.63
74449;BMP280;62878;51.026;4.472;2022-11-20T02:09:04;-5933.16;;;13.97
74449;BMP280;62878;51.026;4.472;2022-11-20T02:11:30;-5932.91;;;13.95
74449;BMP280;62878;51.026;4.472;2022-11-20T02:13:56;-5930.13;;;13.78
74449;BMP280;62878;51.026;4.472;2022-11-20T02:16:25;-5932.75;;;13.94
74449;BMP280;62878;51.026;4.472;2022-11-20T02:18:52;-5933.16;;;13.97
74449;BMP280;62878;51.026;4.472;2022-11-20T02:21:45;-5933.16;;;13.97
74449;BMP280;62878;51.026;4.472;2022-11-20T02:24:18;-5932.75;;;13.94
74449;BMP280;62878;51.026;4.472;2022-11-20T02:26:59;-5932.56;;;13.93
74449;BMP280;62878;51.026;4.472;2022-11-20T02:29:44;-5932.41;;;13.92
74449;BMP280;62878;51.026;4.472;2022-11-20T02:32:31;-5931.56;;;13.87
74449;BMP280;62878;51.026;4.472;2022-11-20T02:34:57;-5932.41;;;13.92
74449;BMP280;62878;51.026;4.472;2022-11-20T02:37:23;-5931.38;;;13.86
74449;BMP280;62878;51.026;4.472;2022-11-20T02:39:52;-5930.56;;;13.81
74449;BMP280;62878;51.026;4.472;2022-11-20T02:42:18;-5932.50;;;13.93
74449;BMP280;62878;51.026;4.472;2022-11-20T02:44:43;-5930.47;;;13.80
74449;BMP280;62878;51.026;4.472;2022-11-20T02:47:09;-5932.22;;;13.91
74449;BMP280;62878;51.026;4.472;2022-11-20T02:49:35;-5929.53;;;13.75
74449;BMP280;62878;51.026;4.472;2022-11-20T02:52:00;-5931.47;;;13.86
74449;BMP280;62878;51.026;4.472;2022-11-20T02:54:25;-5930.72;;;13.82
74449;BMP280;62878;51.026;4.472;2022-11-20T02:56:51;-5931.13;;;13.84
74449;BMP280;62878;51.026;4.472;2022-11-20T02:59:16;-5926.66;;;13.58
74449;BMP280;62878;51.026;4.472;2022-11-20T03:01:42;-5929.88;;;13.77
74449;BMP280;62878;51.026;4.472;2022-11-20T03:04:07;-5932.50;;;13.93
74449;BMP280;62878;51.026;4.472;2022-11-20T03:06:33;-5932.31;;;13.92
74449;BMP280;62878;51.026;4.472;2022-11-20T03:08:58;-5931.72;;;13.88
74449;BMP280;62878;51.026;4.472;2022-11-20T03:11:24;-5930.81;;;13.82
74449;BMP280;62878;51.026;4.472;2022-11-20T03:13:49;-5931.81;;;13.88
74449;BMP280;62878;51.026;4.472;2022-11-20T03:16:16;-5930.72;;;13.82
74449;BMP280;62878;51.026;4.472;2022-11-20T03:18:43;-5931.91;;;13.89
74449;BMP280;62878;51.026;4.472;2022-11-20T03:21:09;-5931.56;;;13.87
74449;BMP280;62878;51.026;4.472;2022-11-20T03:23:35;-5930.38;;;13.80
74449;BMP280;62878;51.026;4.472;2022-11-20T03:26:20;-5931.47;;;13.86
74449;BMP280;62878;51.026;4.472;2022-11-20T03:28:48;-5931.38;;;13.86
74449;BMP280;62878;51.026;4.472;2022-11-20T03:31:15;-5931.66;;;13.88
74449;BMP280;62878;51.026;4.472;2022-11-20T03:33:41;-5931.56;;;13.87
74449;BMP280;62878;51.026;4.472;2022-11-20T03:36:12;-5931.31;;;13.85
74449;BMP280;62878;51.026;4.472;2022-11-20T03:38:38;-5931.06;;;13.84
74449;BMP280;62878;51.026;4.472;2022-11-20T03:41:08;-5930.88;;;13.83
74449;BMP280;62878;51.026;4.472;2022-11-20T03:43:34;-5930.88;;;13.83
74449;BMP280;62878;51.026;4.472;2022-11-20T03:45:59;-5930.13;;;13.78
74449;BMP280;62878;51.026;4.472;2022-11-20T03:48:25;-5930.72;;;13.82
74449;BMP280;62878;51.026;4.472;2022-11-20T03:50:52;-5930.63;;;13.81
74449;BMP280;62878;51.026;4.472;2022-11-20T03:53:18;-5925.25;;;13.49
74449;BMP280;62878;51.026;4.472;2022-11-20T03:55:44;-5929.88;;;13.77
74449;BMP280;62878;51.026;4.472;2022-11-20T03:58:09;-5930.88;;;13.83
74449;BMP280;62878;51.026;4.472;2022-11-20T04:00:35;-5930.63;;;13.81
74449;BMP280;62878;51.026;4.472;2022-11-20T04:03:01;-5930.56;;;13.81
74449;BMP280;62878;51.026;4.472;2022-11-20T04:05:27;-5930.38;;;13.80
74449;BMP280;62878;51.026;4.472;2022-11-20T04:07:53;-5927.59;;;13.63
74449;BMP280;62878;51.026;4.472;2022-11-20T04:10:18;-5929.38;;;13.74
74449;BMP280;62878;51.026;4.472;2022-11-20T04:12:44;-5930.97;;;13.83
74449;BMP280;62878;51.026;4.472;2022-11-20T04:15:09;-5928.09;;;13.66
74449;BMP280;62878;51.026;4.472;2022-11-20T04:17:35;-5929.63;;;13.75
74449;BMP280;62878;51.026;4.472;2022-11-20T04:20:01;-5929.19;;;13.73
74449;BMP280;62878;51.026;4.472;2022-11-20T04:22:26;-5928.59;;;13.69
74449;BMP280;62878;51.026;4.472;2022-11-20T04:24:51;-5930.22;;;13.79
74449;BMP280;62878;51.026;4.472;2022-11-20T04:27:17;-5930.38;;;13.80
74449;BMP280;62878;51.026;4.472;2022-11-20T04:29:42;-5929.28;;;13.73
74449;BMP280;62878;51.026;4.472;2022-11-20T04:32:08;-5929.53;;;13.75
74449;BMP280;62878;51.026;4.472;2022-11-20T04:34:33;-5930.22;;;13.79
74449;BMP280;62878;51.026;4.472;2022-11-20T04:36:58;-5926.34;;;13.56
74449;BMP280;62878;51.026;4.472;2022-11-20T04:39:24;-5929.38;;;13.74
74449;BMP280;62878;51.026;4.472;2022-11-20T04:41:49;-5929.38;;;13.74
74449;BMP280;62878;51.026;4.472;2022-11-20T04:44:34;-5928.53;;;13.69
74449;BMP280;62878;51.026;4.472;2022-11-20T04:46:59;-5928.03;;;13.66
74449;BMP280;62878;51.026;4.472;2022-11-20T04:49:25;-5928.78;;;13.70
74449;BMP280;62878;51.026;4.472;2022-11-20T04:51:53;-5926.94;;;13.59
74449;BMP280;62878;51.026;4.472;2022-11-20T04:54:18;-5927.69;;;13.64
74449;BMP280;62878;51.026;4.472;2022-11-20T04:56:47;-5928.69;;;13.70
74449;BMP280;62878;51.026;4.472;2022-11-20T04:59:12;-5929.13;;;13.72
74449;BMP280;62878;51.026;4.472;2022-11-20T05:01:37;-5926.66;;;13.58
74449;BMP280;62878;51.026;4.472;2022-11-20T05:04:03;-5927.09;;;13.60
74449;BMP280;62878;51.026;4.472;2022-11-20T05:06:28;-5926.84;;;13.59
74449;BMP280;62878;51.026;4.472;2022-11-20T05:08:53;-5927.44;;;13.62
74449;BMP280;62878;51.026;4.472;2022-11-20T05:11:20;-5928.34;;;13.68
74449;BMP280;62878;51.026;4.472;2022-11-20T05:13:46;-5927.50;;;13.63
74449;BMP280;62878;51.026;4.472;2022-11-20T05:16:13;-5925.84;;;13.53
74449;BMP280;62878;51.026;4.472;2022-11-20T05:18:40;-5928.53;;;13.69
74449;BMP280;62878;51.026;4.472;2022-11-20T05:21:06;-5926.25;;;13.55
74449;BMP280;62878;51.026;4.472;2022-11-20T05:23:32;-5927.84;;;13.65
74449;BMP280;62878;51.026;4.472;2022-11-20T05:25:58;-5928.34;;;13.68
74449;BMP280;62878;51.026;4.472;2022-11-20T05:28:24;-5927.84;;;13.65
74449;BMP280;62878;51.026;4.472;2022-11-20T05:30:50;-5927.94;;;13.65
74449;BMP280;62878;51.026;4.472;2022-11-20T05:33:16;-5927.78;;;13.64
74449;BMP280;62878;51.026;4.472;2022-11-20T05:35:41;-5927.78;;;13.64
74449;BMP280;62878;51.026;4.472;2022-11-20T05:38:07;-5928.03;;;13.66
74449;BMP280;62878;51.026;4.472;2022-11-20T05:40:32;-5927.78;;;13.64
74449;BMP280;62878;51.026;4.472;2022-11-20T05:42:58;-5927.78;;;13.64
74449;BMP280;62878;51.026;4.472;2022-11-20T05:45:23;-5926.34;;;13.56
74449;BMP280;62878;51.026;4.472;2022-11-20T05:47:48;-5927.59;;;13.63
74449;BMP280;62878;51.026;4.472;2022-11-20T05:50:14;-5925.41;;;13.50
74449;BMP280;62878;51.026;4.472;2022-11-20T05:52:40;-5926.66;;;13.58
74449;BMP280;62878;51.026;4.472;2022-11-20T05:55:06;-5927.59;;;13.63
74449;BMP280;62878;51.026;4.472;2022-11-20T05:57:32;-5927.69;;;13.64
74449;BMP280;62878;51.026;4.472;2022-11-20T05:59:57;-5927.59;;;13.63
74449;BMP280;62878;51.026;4.472;2022-11-20T06:02:22;-5926.94;;;13.59
74449;BMP280;62878;51.026;4.472;2022-11-20T06:04:48;-5927.19;;;13.61
74449;BMP280;62878;51.026;4.472;2022-11-20T06:07:13;-5927.19;;;13.61
74449;BMP280;62878;51.026;4.472;2022-11-20T06:09:38;-5926.66;;;13.58
74449;BMP280;62878;51.026;4.472;2022-11-20T06:12:04;-5927.00;;;13.60
74449;BMP280;62878;51.026;4.472;2022-11-20T06:14:30;-5926.84;;;13.59
74449;BMP280;62878;51.026;4.472;2022-11-20T06:16:55;-5927.19;;;13.61
74449;BMP280;62878;51.026;4.472;2022-11-20T06:19:21;-5925.50;;;13.51
74449;BMP280;62878;51.026;4.472;2022-11-20T06:21:48;-5926.66;;;13.58
74449;BMP280;62878;51.026;4.472;2022-11-20T06:24:13;-5924.81;;;13.47
74449;BMP280;62878;51.026;4.472;2022-11-20T06:26:39;-5927.00;;;13.60
74449;BMP280;62878;51.026;4.472;2022-11-20T06:29:04;-5926.66;;;13.58
74449;BMP280;62878;51.026;4.472;2022-11-20T06:31:29;-5926.94;;;13.59
74449;BMP280;62878;51.026;4.472;2022-11-20T06:33:57;-5926.41;;;13.56
74449;BMP280;62878;51.026;4.472;2022-11-20T06:36:23;-5926.41;;;13.56
74449;BMP280;62878;51.026;4.472;2022-11-20T06:38:48;-5926.34;;;13.56
74449;BMP280;62878;51.026;4.472;2022-11-20T06:41:20;-5926.50;;;13.57
74449;BMP280;62878;51.026;4.472;2022-11-20T06:43:46;-5926.66;;;13.58
74449;BMP280;62878;51.026;4.472;2022-11-20T06:46:13;-5923.22;;;13.37
74449;BMP280;62878;51.026;4.472;2022-11-20T06:48:40;-5926.16;;;13.55
74449;BMP280;62878;51.026;4.472;2022-11-20T06:51:07;-5922.81;;;13.34
74449;BMP280;62878;51.026;4.472;2022-11-20T06:53:32;-5925.66;;;13.52
74449;BMP280;62878;51.026;4.472;2022-11-20T06:55:58;-5926.16;;;13.55
74449;BMP280;62878;51.026;4.472;2022-11-20T06:58:26;-5925.84;;;13.53
74449;BMP280;62878;51.026;4.472;2022-11-20T07:00:52;-5923.63;;;13.39
74449;BMP280;62878;51.026;4.472;2022-11-20T07:03:18;-5925.31;;;13.50
74449;BMP280;62878;51.026;4.472;2022-11-20T07:05:43;-5925.91;;;13.53
74449;BMP280;62878;51.026;4.472;2022-11-20T07:08:10;-5926.25;;;13.55
74449;BMP280;62878;51.026;4.472;2022-11-20T07:10:35;-5926.25;;;13.55
74449;BMP280;62878;51.026;4.472;2022-11-20T07:13:00;-5928.28;;;13.67
74449;BMP280;62878;51.026;4.472;2022-11-20T07:15:26;-5928.69;;;13.70
74449;BMP280;62878;51.026;4.472;2022-11-20T07:17:52;-5927.25;;;13.61
74449;BMP280;62878;51.026;4.472;2022-11-20T07:20:17;-5930.22;;;13.79
74449;BMP280;62878;51.026;4.472;2022-11-20T07:22:42;-5930.03;;;13.78
74449;BMP280;62878;51.026;4.472;2022-11-20T07:25:09;-5931.31;;;13.85
74449;BMP280;62878;51.026;4.472;2022-11-20T07:27:34;-5932.06;;;13.90
74449;BMP280;62878;51.026;4.472;2022-11-20T07:30:00;-5933.06;;;13.96
74449;BMP280;62878;51.026;4.472;2022-11-20T07:32:25;-5929.63;;;13.75
74449;BMP280;62878;51.026;4.472;2022-11-20T07:34:50;-5932.56;;;13.93
74449;BMP280;62878;51.026;4.472;2022-11-20T07:37:16;-5933.25;;;13.97
74449;BMP280;62878;51.026;4.472;2022-11-20T07:39:43;-5932.56;;;13.93
74449;BMP280;62878;51.026;4.472;2022-11-20T07:42:08;-5932.75;;;13.94
74449;BMP280;62878;51.026;4.472;2022-11-20T07:44:34;-5932.66;;;13.94
74449;BMP280;62878;51.026;4.472;2022-11-20T07:46:59;-5928.88;;;13.71
74449;BMP280;62878;51.026;4.472;2022-11-20T07:49:25;-5932.50;;;13.93
74449;BMP280;62878;51.026;4.472;2022-11-20T07:51:51;-5934.25;;;14.03
74449;BMP280;62878;51.026;4.472;2022-11-20T07:54:18;-5934.25;;;14.03
74449;BMP280;62878;51.026;4.472;2022-11-20T07:56:43;-5934.09;;;14.02
74449;BMP280;62878;51.026;4.472;2022-11-20T07:59:09;-5935.53;;;14.11
74449;BMP280;62878;51.026;4.472;2022-11-20T08:01:36;-5935.94;;;14.13
74449;BMP280;62878;51.026;4.472;2022-11-20T08:04:02;-5936.88;;;14.19
74449;BMP280;62878;51.026;4.472;2022-11-20T08:06:27;-5936.88;;;14.19
74449;BMP280;62878;51.026;4.472;2022-11-20T08:08:52;-5937.13;;;14.20
74449;BMP280;62878;51.026;4.472;2022-11-20T08:11:18;-5937.13;;;14.20
74449;BMP280;62878;51.026;4.472;2022-11-20T08:14:02;-5937.47;;;14.22
74449;BMP280;62878;51.026;4.472;2022-11-20T08:16:42;-5937.28;;;14.21
74449;BMP280;62878;51.026;4.472;2022-11-20T08:19:07;-5936.78;;;14.18
74449;BMP280;62878;51.026;4.472;2022-11-20T08:21:33;-5932.31;;;13.92
74449;BMP280;62878;51.026;4.472;2022-11-20T08:23:59;-5936.09;;;14.14
74449;BMP280;62878;51.026;4.472;2022-11-20T08:26:25;-5936.09;;;14.14
74449;BMP280;62878;51.026;4.472;2022-11-20T08:28:57;-5936.03;;;14.14
74449;BMP280;62878;51.026;4.472;2022-11-20T08:31:24;-5933.91;;;14.01
74449;BMP280;62878;51.026;4.472;2022-11-20T08:33:50;-5936.28;;;14.15
74449;BMP280;62878;51.026;4.472;2022-11-20T08:36:18;-5937.78;;;14.24
74449;BMP280;62878;51.026;4.472;2022-11-20T08:38:50;-5937.28;;;14.21
74449;BMP280;62878;51.026;4.472;2022-11-20T08:41:16;-5937.63;;;14.23
74449;BMP280;62878;51.026;4.472;2022-11-20T08:43:53;-5938.56;;;14.29
74449;BMP280;62878;51.026;4.472;2022-11-20T08:46:18;-5939.47;;;14.34
74449;BMP280;62878;51.026;4.472;2022-11-20T08:48:44;-5937.97;;;14.25
74449;BMP280;62878;51.026;4.472;2022-11-20T08:51:10;-5938.97;;;14.31
74449;BMP280;62878;51.026;4.472;2022-11-20T08:53:35;-5939.31;;;14.33
74449;BMP280;62878;51.026;4.472;2022-11-20T08:56:01;-5937.47;;;14.22
74449;BMP280;62878;51.026;4.472;2022-11-20T08:58:26;-5938.72;;;14.30
74449;BMP280;62878;51.026;4.472;2022-11-20T09:00:52;-5939.97;;;14.38
74449;BMP280;62878;51.026;4.472;2022-11-20T09:03:17;-5939.97;;;14.38
74449;BMP280;62878;51.026;4.472;2022-11-20T09:05:42;-5940.16;;;14.39
74449;BMP280;62878;51.026;4.472;2022-11-20T09:08:09;-5939.91;;;14.37
74449;BMP280;62878;51.026;4.472;2022-11-20T09:10:34;-5939.47;;;14.34
74449;BMP280;62878;51.026;4.472;2022-11-20T09:13:00;-5939.72;;;14.36
74449;BMP280;62878;51.026;4.472;2022-11-20T09:15:26;-5939.47;;;14.34
74449;BMP280;62878;51.026;4.472;2022-11-20T09:17:52;-5939.72;;;14.36
74449;BMP280;62878;51.026;4.472;2022-11-20T09:20:18;-5938.88;;;14.31
74449;BMP280;62878;51.026;4.472;2022-11-20T09:22:43;-5938.03;;;14.26
74449;BMP280;62878;51.026;4.472;2022-11-20T09:25:09;-5936.19;;;14.15
74449;BMP280;62878;51.026;4.472;2022-11-20T09:27:34;-5937.38;;;14.22
74449;BMP280;62878;51.026;4.472;2022-11-20T09:30:00;-5937.53;;;14.23
74449;BMP280;62878;51.026;4.472;2022-11-20T09:32:26;-5935.94;;;14.13
74449;BMP280;62878;51.026;4.472;2022-11-20T09:34:51;-5938.63;;;14.29
74449;BMP280;62878;51.026;4.472;2022-11-20T09:37:18;-5940.16;;;14.39
74449;BMP280;62878;51.026;4.472;2022-11-20T09:39:43;-5939.81;;;14.36
74449;BMP280;62878;51.026;4.472;2022-11-20T09:42:18;-5940.81;;;14.43
74449;BMP280;62878;51.026;4.472;2022-11-20T09:50:32;-5942.00;;;14.50
74449;BMP280;62878;51.026;4.472;2022-11-20T09:53:25;-5942.00;;;14.50
74449;BMP280;62878;51.026;4.472;2022-11-20T09:55:54;-5942.25;;;14.51
74449;BMP280;62878;51.026;4.472;2022-11-20T09:58:28;-5942.25;;;14.51
74449;BMP280;62878;51.026;4.472;2022-11-20T10:00:56;-5942.50;;;14.53
74449;BMP280;62878;51.026;4.472;2022-11-20T10:03:37;-5942.50;;;14.53
74449;BMP280;62878;51.026;4.472;2022-11-20T10:06:05;-5942.59;;;14.53
74449;BMP280;62878;51.026;4.472;2022-11-20T10:08:40;-5942.19;;;14.51
74449;BMP280;62878;51.026;4.472;2022-11-20T10:13:58;-5941.00;;;14.44
74449;BMP280;62878;51.026;4.472;2022-11-20T10:21:48;-5941.09;;;14.44
74449;BMP280;62878;51.026;4.472;2022-11-20T10:27:18;-5940.66;;;14.42
74449;BMP280;62878;51.026;4.472;2022-11-20T10:30:18;-5941.00;;;14.44
74449;BMP280;62878;51.026;4.472;2022-11-20T10:32:45;-5941.00;;;14.44
74449;BMP280;62878;51.026;4.472;2022-11-20T10:35:26;-5940.56;;;14.41
74449;BMP280;62878;51.026;4.472;2022-11-20T10:37:59;-5940.81;;;14.43
74449;BMP280;62878;51.026;4.472;2022-11-20T10:40:30;-5940.75;;;14.42
74449;BMP280;62878;51.026;4.472;2022-11-20T10:43:18;-5940.31;;;14.40
74449;BMP280;62878;51.026;4.472;2022-11-20T10:45:49;-5936.78;;;14.18
74449;BMP280;62878;51.026;4.472;2022-11-20T10:48:23;-5938.97;;;14.31
74449;BMP280;62878;51.026;4.472;2022-11-20T10:53:42;-5942.84;;;14.55
74449;BMP280;62878;51.026;4.472;2022-11-20T11:01:51;-5946.06;;;14.74
74449;BMP280;62878;51.026;4.472;2022-11-20T11:04:28;-5946.81;;;14.78
74449;BMP280;62878;51.026;4.472;2022-11-20T11:07:01;-5946.72;;;14.78
74449;BMP280;62878;51.026;4.472;2022-11-20T11:09:37;-5946.72;;;14.78
74449;BMP280;62878;51.026;4.472;2022-11-20T11:12:08;-5948.56;;;14.89
74449;BMP280;62878;51.026;4.472;2022-11-20T11:14:49;-5949.09;;;14.92
74449;BMP280;62878;51.026;4.472;2022-11-20T11:20:24;-5949.09;;;14.92
74449;BMP280;62878;51.026;4.472;2022-11-20T11:22:56;-5947.56;;;14.83
74449;BMP280;62878;51.026;4.472;2022-11-20T11:27:54;-5949.09;;;14.92
74449;BMP280;62878;51.026;4.472;2022-11-20T11:30:22;-5949.34;;;14.94
74449;BMP280;62878;51.026;4.472;2022-11-20T11:32:48;-5948.50;;;14.89
74449;BMP280;62878;51.026;4.472;2022-11-20T11:35:28;-5949.25;;;14.93
74449;BMP280;62878;51.026;4.472;2022-11-20T11:38:13;-5949.25;;;14.93
74449;BMP280;62878;51.026;4.472;2022-11-20T11:40:40;-5948.50;;;14.89
74449;BMP280;62878;51.026;4.472;2022-11-20T11:43:16;-5949.09;;;14.92
74449;BMP280;62878;51.026;4.472;2022-11-20T11:46:02;-5947.97;;;14.85
74449;BMP280;62878;51.026;4.472;2022-11-20T11:48:27;-5947.41;;;14.82
74449;BMP280;62878;51.026;4.472;2022-11-20T11:50:52;-5948.25;;;14.87
74449;BMP280;62878;51.026;4.472;2022-11-20T11:53:21;-5947.91;;;14.85
74449;BMP280;62878;51.026;4.472;2022-11-20T11:55:53;-5947.06;;;14.80
74449;BMP280;62878;51.026;4.472;2022-11-20T12:01:04;-5948.66;;;14.90
74449;BMP280;62878;51.026;4.472;2022-11-20T12:03:40;-5945.28;;;14.69
74449;BMP280;62878;51.026;4.472;2022-11-20T12:06:15;-5948.16;;;14.87
74449;BMP280;62878;51.026;4.472;2022-11-20T12:08:55;-5947.91;;;14.85
74449;BMP280;62878;51.026;4.472;2022-11-20T12:11:38;-5946.22;;;14.75
74449;BMP280;62878;51.026;4.472;2022-11-20T12:14:20;-5947.56;;;14.83
74449;BMP280;62878;51.026;4.472;2022-11-20T12:16:50;-5944.88;;;14.67
74449;BMP280;62878;51.026;4.472;2022-11-20T12:19:17;-5937.97;;;14.25
74449;BMP280;62878;51.026;4.472;2022-11-20T12:21:52;-5944.38;;;14.64
74449;BMP280;62878;51.026;4.472;2022-11-20T12:24:52;-5946.88;;;14.79
74449;BMP280;62878;51.026;4.472;2022-11-20T12:30:08;-5946.72;;;14.78
74449;BMP280;62878;51.026;4.472;2022-11-20T12:43:27;-5943.84;;;14.61
74449;BMP280;62878;51.026;4.472;2022-11-20T12:51:51;-5945.22;;;14.69
74449;BMP280;62878;51.026;4.472;2022-11-20T12:59:55;-5945.88;;;14.73
74449;BMP280;62878;51.026;4.472;2022-11-20T13:08:40;-5944.19;;;14.63
74449;BMP280;62878;51.026;4.472;2022-11-20T13:11:12;-5944.88;;;14.67
74449;BMP280;62878;51.026;4.472;2022-11-20T13:13:42;-5944.69;;;14.66
74449;BMP280;62878;51.026;4.472;2022-11-20T13:16:33;-5944.53;;;14.65
74449;BMP280;62878;51.026;4.472;2022-11-20T13:19:08;-5942.19;;;14.51
74449;BMP280;62878;51.026;4.472;2022-11-20T13:21:40;-5944.78;;;14.66
74449;BMP280;62878;51.026;4.472;2022-11-20T13:24:49;-5944.69;;;14.66
74449;BMP280;62878;51.026;4.472;2022-11-20T13:29:33;-5942.19;;;14.51
74449;BMP280;62878;51.026;4.472;2022-11-20T13:32:12;-5944.78;;;14.66
74449;BMP280;62878;51.026;4.472;2022-11-20T13:34:39;-5944.63;;;14.65
74449;BMP280;62878;51.026;4.472;2022-11-20T13:37:04;-5945.28;;;14.69
74449;BMP280;62878;51.026;4.472;2022-11-20T13:39:34;-5945.13;;;14.68
74449;BMP280;62878;51.026;4.472;2022-11-20T13:42:02;-5944.69;;;14.66
74449;BMP280;62878;51.026;4.472;2022-11-20T13:45:00;-5933.06;;;13.96
74449;BMP280;62878;51.026;4.472;2022-11-20T13:47:28;-5932.66;;;13.94
74449;BMP280;62878;51.026;4.472;2022-11-20T13:49:58;-5936.94;;;14.19
74449;BMP280;62878;51.026;4.472;2022-11-20T13:57:43;-5941.16;;;14.45
74449;BMP280;62878;51.026;4.472;2022-11-20T14:00:23;-5941.34;;;14.46
74449;BMP280;62878;51.026;4.472;2022-11-20T14:05:36;-5941.34;;;14.46
74449;BMP280;62878;51.026;4.472;2022-11-20T14:08:10;-5941.75;;;14.48
74449;BMP280;62878;51.026;4.472;2022-11-20T14:10:37;-5940.91;;;14.43
74449;BMP280;62878;51.026;4.472;2022-11-20T14:13:30;-5941.34;;;14.46
74449;BMP280;62878;51.026;4.472;2022-11-20T14:15:57;-5941.16;;;14.45
74449;BMP280;62878;51.026;4.472;2022-11-20T14:18:26;-5940.75;;;14.42
74449;BMP280;62878;51.026;4.472;2022-11-20T14:20:52;-5941.00;;;14.44
74449;BMP280;62878;51.026;4.472;2022-11-20T14:23:28;-5939.31;;;14.33
74449;BMP280;62878;51.026;4.472;2022-11-20T14:25:54;-5938.31;;;14.27
74449;BMP280;62878;51.026;4.472;2022-11-20T14:28:28;-5940.16;;;14.39
74449;BMP280;62878;51.026;4.472;2022-11-20T14:30:54;-5939.81;;;14.36
74449;BMP280;62878;51.026;4.472;2022-11-20T14:33:20;-5937.47;;;14.22
74449;BMP280;62878;51.026;4.472;2022-11-20T14:35:52;-5939.16;;;14.32
74449;BMP280;62878;51.026;4.472;2022-11-20T14:38:21;-5938.72;;;14.30
74449;BMP280;62878;51.026;4.472;2022-11-20T14:40:47;-5937.88;;;14.25
74449;BMP280;62878;51.026;4.472;2022-11-20T14:43:38;-5937.88;;;14.25
74449;BMP280;62878;51.026;4.472;2022-11-20T14:46:07;-5938.63;;;14.29
74449;BMP280;62878;51.026;4.472;2022-11-20T14:48:47;-5938.03;;;14.26
74449;BMP280;62878;51.026;4.472;2022-11-20T14:51:33;-5937.53;;;14.23
74449;BMP280;62878;51.026;4.472;2022-11-20T14:56:35;-5934.44;;;14.04
74449;BMP280;62878;51.026;4.472;2022-11-20T14:59:00;-5934.00;;;14.02
74449;BMP280;62878;51.026;4.472;2022-11-20T15:01:27;-5937.53;;;14.23
74449;BMP280;62878;51.026;4.472;2022-11-20T15:04:19;-5940.91;;;14.43
74449;BMP280;62878;51.026;4.472;2022-11-20T15:06:50;-5936.19;;;14.15
74449;BMP280;62878;51.026;4.472;2022-11-20T15:09:16;-5937.97;;;14.25
74449;BMP280;62878;51.026;4.472;2022-11-20T15:11:53;-5937.97;;;14.25
74449;BMP280;62878;51.026;4.472;2022-11-20T15:14:19;-5936.63;;;14.17
74449;BMP280;62878;51.026;4.472;2022-11-20T15:16:44;-5939.47;;;14.34
74449;BMP280;62878;51.026;4.472;2022-11-20T15:19:23;-5940.06;;;14.38
74449;BMP280;62878;51.026;4.472;2022-11-20T15:21:49;-5940.31;;;14.40
74449;BMP280;62878;51.026;4.472;2022-11-20T15:24:15;-5941.00;;;14.44
74449;BMP280;62878;51.026;4.472;2022-11-20T15:26:41;-5941.34;;;14.46
74449;BMP280;62878;51.026;4.472;2022-11-20T15:29:15;-5941.50;;;14.47
74449;BMP280;62878;51.026;4.472;2022-11-20T15:31:43;-5939.72;;;14.36
74449;BMP280;62878;51.026;4.472;2022-11-20T15:34:14;-5940.81;;;14.43
74449;BMP280;62878;51.026;4.472;2022-11-20T15:36:40;-5940.50;;;14.41
74449;BMP280;62878;51.026;4.472;2022-11-20T15:39:06;-5940.16;;;14.39
74449;BMP280;62878;51.026;4.472;2022-11-20T15:41:34;-5941.75;;;14.48